Time;durP1;ratioP1;P1;durP2;ratioP2;P2;SDS_P1;SDS_P2;PMS_P1;PMS_P2;Temp;Humidity;BMP_temperature;BMP_pressure;BME280_temperature;BME280_humidity;BME280_pressure;Samples;Min_cycle;Max_cycle;Signal;HPM_P1;HPM_P2
2023/09/16 00:00:33;;;;;;;8.77;5.57;;;;;;;;;;4985560;28;20035;-74
2023/09/16 00:03:06;;;;;;;8.20;5.43;;;;;;;;;;4982078;28;20034;-74
2023/09/16 00:05:32;;;;;;;7.97;5.38;;;;;;;;;;4976610;28;20049;-74
2023/09/16 00:07:58;;;;;;;7.00;5.55;;;;;;;;;;4980280;28;20043;-74
2023/09/16 00:10:24;;;;;;;7.97;5.80;;;;;;;;;;4984553;28;20027;-74
2023/09/16 00:12:50;;;;;;;11.45;5.63;;;;;;;;;;4986046;28;20026;-74
2023/09/16 00:15:16;;;;;;;6.57;5.25;;;;;;;;;;4977975;28;20037;-74
2023/09/16 00:17:42;;;;;;;6.88;6.00;;;;;;;;;;4985172;28;20053;-73
2023/09/16 00:20:14;;;;;;;7.90;6.10;;;;;;;;;;4982273;28;20369;-74
2023/09/16 00:22:41;;;;;;;7.38;6.03;;;;;;;;;;4980921;28;20828;-73
2023/09/16 00:25:08;;;;;;;7.60;5.75;;;;;;;;;;4983291;28;20069;-73
2023/09/16 00:27:34;;;;;;;6.60;5.47;;;;;;;;;;4985417;28;20473;-74
2023/09/16 00:30:00;;;;;;;8.77;6.43;;;;;;;;;;4977727;28;20039;-74
2023/09/16 00:32:28;;;;;;;10.65;5.68;;;;;;;;;;4985762;28;20049;-74
2023/09/16 00:34:54;;;;;;;8.15;5.93;;;;;;;;;;4979961;28;20034;-73
2023/09/16 00:37:20;;;;;;;9.18;6.22;;;;;;;;;;4986106;28;20022;-74
2023/09/16 00:39:46;;;;;;;8.93;5.82;;;;;;;;;;4983286;28;20041;-74
2023/09/16 00:42:12;;;;;;;11.32;5.97;;;;;;;;;;4985851;28;20046;-74
2023/09/16 00:44:39;;;;;;;6.72;5.57;;;;;;;;;;4984960;28;20026;-74
2023/09/16 00:47:05;;;;;;;10.10;6.15;;;;;;;;;;4985134;28;20046;-74
2023/09/16 00:49:31;;;;;;;7.28;6.03;;;;;;;;;;4986911;28;20330;-73
2023/09/16 00:51:57;;;;;;;7.05;5.32;;;;;;;;;;4977957;28;20512;-73
2023/09/16 00:54:24;;;;;;;9.32;5.40;;;;;;;;;;4984671;28;20551;-74
2023/09/16 00:56:50;;;;;;;9.25;6.82;;;;;;;;;;4986355;28;20097;-74
2023/09/16 00:59:20;;;;;;;10.80;6.18;;;;;;;;;;4973646;28;20106;-74
2023/09/16 01:01:49;;;;;;;9.45;5.43;;;;;;;;;;4981620;28;20085;-74
2023/09/16 01:04:16;;;;;;;7.53;6.70;;;;;;;;;;4975307;28;20140;-74
2023/09/16 01:06:50;;;;;;;8.77;6.22;;;;;;;;;;4980363;28;20529;-73
2023/09/16 01:09:17;;;;;;;6.95;5.80;;;;;;;;;;4981763;28;20034;-73
2023/09/16 01:11:43;;;;;;;9.35;5.72;;;;;;;;;;4984288;28;20031;-74
2023/09/16 01:14:11;;;;;;;5.95;5.32;;;;;;;;;;4985771;28;20118;-73
2023/09/16 01:16:43;;;;;;;6.72;5.47;;;;;;;;;;4987700;28;20034;-73
2023/09/16 01:19:16;;;;;;;9.27;5.65;;;;;;;;;;4990581;28;20096;-73
2023/09/16 01:21:43;;;;;;;5.97;5.13;;;;;;;;;;4992548;28;20034;-73
2023/09/16 01:24:16;;;;;;;6.45;5.85;;;;;;;;;;4987249;28;20510;-73
2023/09/16 01:26:42;;;;;;;7.70;5.07;;;;;;;;;;4988763;28;20038;-73
2023/09/16 01:29:08;;;;;;;9.20;5.40;;;;;;;;;;4985314;28;20026;-73
2023/09/16 01:31:34;;;;;;;7.75;5.30;;;;;;;;;;4988274;28;20484;-73
2023/09/16 01:34:03;;;;;;;6.00;5.38;;;;;;;;;;4987685;28;20031;-73
2023/09/16 01:36:30;;;;;;;6.72;4.80;;;;;;;;;;4985739;28;20057;-73
2023/09/16 01:39:00;;;;;;;6.47;5.70;;;;;;;;;;4987176;28;20659;-74
2023/09/16 01:41:27;;;;;;;7.30;5.80;;;;;;;;;;4986029;28;20031;-73
2023/09/16 01:43:54;;;;;;;7.63;6.10;;;;;;;;;;4986008;28;20038;-73
2023/09/16 01:46:20;;;;;;;9.32;5.80;;;;;;;;;;4984358;28;20093;-74
2023/09/16 01:48:46;;;;;;;8.02;5.68;;;;;;;;;;4987149;28;20034;-73
2023/09/16 01:51:13;;;;;;;8.70;6.03;;;;;;;;;;4985310;28;20495;-73
2023/09/16 01:53:39;;;;;;;7.07;5.75;;;;;;;;;;4982966;28;20023;-73
2023/09/16 01:56:05;;;;;;;7.07;6.38;;;;;;;;;;4981983;28;20077;-73
2023/09/16 01:58:31;;;;;;;8.35;5.82;;;;;;;;;;4985610;28;20061;-73
2023/09/16 02:00:57;;;;;;;11.20;5.63;;;;;;;;;;4993700;28;20049;-74
2023/09/16 02:03:23;;;;;;;6.97;4.97;;;;;;;;;;4985258;28;20085;-73
2023/09/16 02:05:49;;;;;;;8.27;5.82;;;;;;;;;;4984344;28;20034;-73
2023/09/16 02:08:15;;;;;;;6.82;5.75;;;;;;;;;;4978064;28;20369;-73
2023/09/16 02:10:41;;;;;;;6.35;5.38;;;;;;;;;;4981104;28;20038;-73
2023/09/16 02:13:07;;;;;;;6.53;5.32;;;;;;;;;;4985634;28;20030;-73
2023/09/16 02:15:34;;;;;;;9.77;5.65;;;;;;;;;;4998923;28;20503;-73
2023/09/16 02:18:00;;;;;;;12.50;7.30;;;;;;;;;;4981713;28;20053;-73
2023/09/16 02:20:26;;;;;;;8.25;6.15;;;;;;;;;;4984508;28;20043;-73
2023/09/16 02:22:52;;;;;;;10.93;7.65;;;;;;;;;;4984612;28;20121;-73
2023/09/16 02:25:18;;;;;;;10.57;7.22;;;;;;;;;;4987989;28;20030;-73
2023/09/16 02:27:44;;;;;;;9.15;5.93;;;;;;;;;;4985588;28;20034;-73
2023/09/16 02:30:11;;;;;;;8.73;6.72;;;;;;;;;;4982874;28;20041;-73
2023/09/16 02:32:37;;;;;;;10.38;6.80;;;;;;;;;;4986842;28;20030;-73
2023/09/16 02:35:03;;;;;;;13.40;7.22;;;;;;;;;;4986532;28;20073;-73
2023/09/16 02:37:29;;;;;;;8.23;7.07;;;;;;;;;;4983738;28;20061;-73
2023/09/16 02:39:55;;;;;;;9.70;6.68;;;;;;;;;;4984466;28;20129;-73
2023/09/16 02:42:21;;;;;;;8.85;6.90;;;;;;;;;;4989477;28;20173;-73
2023/09/16 02:44:47;;;;;;;8.40;7.10;;;;;;;;;;4982615;28;20158;-73
2023/09/16 02:47:13;;;;;;;9.55;7.22;;;;;;;;;;4982675;28;20118;-74
2023/09/16 02:49:39;;;;;;;8.10;6.68;;;;;;;;;;4986713;28;20042;-73
2023/09/16 02:52:05;;;;;;;8.30;7.30;;;;;;;;;;4984241;28;20032;-73
2023/09/16 02:54:31;;;;;;;10.35;7.07;;;;;;;;;;4993255;28;20390;-73
2023/09/16 02:56:57;;;;;;;9.35;8.43;;;;;;;;;;4987373;28;20027;-73
2023/09/16 02:59:23;;;;;;;11.15;7.95;;;;;;;;;;4984135;28;20072;-73
2023/09/16 03:01:49;;;;;;;10.77;8.20;;;;;;;;;;4981781;28;20101;-73
2023/09/16 03:04:15;;;;;;;15.40;7.93;;;;;;;;;;4981550;28;20035;-73
2023/09/16 03:06:41;;;;;;;13.07;7.88;;;;;;;;;;4980743;28;20454;-73
2023/09/16 03:09:07;;;;;;;9.45;7.40;;;;;;;;;;4979085;28;20030;-73
2023/09/16 03:11:36;;;;;;;12.90;8.13;;;;;;;;;;4981369;28;20034;-73
2023/09/16 03:14:02;;;;;;;9.07;7.68;;;;;;;;;;4977623;28;20039;-73
2023/09/16 03:16:28;;;;;;;11.60;8.10;;;;;;;;;;4984078;28;20030;-73
2023/09/16 03:18:54;;;;;;;9.27;7.65;;;;;;;;;;4979871;28;20042;-73
2023/09/16 03:21:23;;;;;;;10.15;7.05;;;;;;;;;;4979617;28;20080;-73
2023/09/16 03:23:49;;;;;;;8.43;7.30;;;;;;;;;;4987421;28;20022;-73
2023/09/16 03:26:15;;;;;;;8.35;7.05;;;;;;;;;;4978766;28;20595;-74
2023/09/16 03:28:44;;;;;;;13.57;7.80;;;;;;;;;;4982098;28;20089;-73
2023/09/16 03:31:10;;;;;;;12.50;7.90;;;;;;;;;;4983639;28;20076;-73
2023/09/16 03:33:36;;;;;;;10.38;8.10;;;;;;;;;;4982715;28;20041;-73
2023/09/16 03:36:03;;;;;;;10.73;6.75;;;;;;;;;;4979071;28;20053;-73
2023/09/16 03:38:30;;;;;;;8.77;7.20;;;;;;;;;;4982032;28;20034;-73
2023/09/16 03:40:57;;;;;;;10.43;8.95;;;;;;;;;;4981681;28;20031;-74
2023/09/16 03:43:23;;;;;;;8.88;7.60;;;;;;;;;;4978371;28;20042;-73
2023/09/16 03:45:49;;;;;;;10.00;7.95;;;;;;;;;;4981214;28;20142;-73
2023/09/16 03:48:15;;;;;;;8.95;7.13;;;;;;;;;;4980974;28;20609;-73
2023/09/16 03:50:41;;;;;;;9.85;7.32;;;;;;;;;;4986986;28;20484;-73
2023/09/16 03:53:07;;;;;;;9.27;8.07;;;;;;;;;;4972660;28;20492;-73
2023/09/16 03:55:34;;;;;;;8.27;7.13;;;;;;;;;;4983678;28;20532;-72
2023/09/16 03:58:00;;;;;;;10.13;7.57;;;;;;;;;;4982874;28;20058;-75
2023/09/16 04:00:26;;;;;;;24.75;17.15;;;;;;;;;;4982895;28;20062;-74
2023/09/16 04:02:52;;;;;;;15.40;9.85;;;;;;;;;;4986442;28;20416;-73
2023/09/16 04:05:18;;;;;;;10.07;7.88;;;;;;;;;;4986919;28;20023;-73
2023/09/16 04:07:44;;;;;;;9.50;6.68;;;;;;;;;;4989038;28;20096;-75
2023/09/16 04:10:11;;;;;;;10.48;7.90;;;;;;;;;;4982583;28;20030;-74
2023/09/16 04:12:37;;;;;;;9.32;7.28;;;;;;;;;;4980388;28;20034;-72
2023/09/16 04:15:03;;;;;;;8.98;7.63;;;;;;;;;;4981519;28;20038;-73
2023/09/16 04:17:29;;;;;;;8.63;7.70;;;;;;;;;;4995704;28;20035;-74
2023/09/16 04:19:55;;;;;;;8.02;7.22;;;;;;;;;;4983611;28;20042;-74
2023/09/16 04:22:21;;;;;;;12.07;8.27;;;;;;;;;;4997648;28;20109;-73
2023/09/16 04:24:47;;;;;;;9.45;6.80;;;;;;;;;;4980415;28;20106;-74
2023/09/16 04:27:13;;;;;;;51.33;30.50;;;;;;;;;;4975731;28;20118;-76
2023/09/16 04:29:39;;;;;;;51.38;37.05;;;;;;;;;;4984614;28;22286;-76
2023/09/16 04:32:05;;;;;;;16.75;10.23;;;;;;;;;;4983785;28;20046;-76
2023/09/16 04:34:32;;;;;;;14.68;10.40;;;;;;;;;;4978794;28;20031;-73
2023/09/16 04:36:59;;;;;;;9.32;8.30;;;;;;;;;;4982150;28;20608;-73
2023/09/16 04:39:25;;;;;;;12.35;7.07;;;;;;;;;;4982503;28;20034;-73
2023/09/16 04:41:54;;;;;;;9.55;7.50;;;;;;;;;;4978282;28;20035;-73
2023/09/16 04:44:20;;;;;;;9.63;7.30;;;;;;;;;;4994642;28;20400;-73
2023/09/16 04:46:46;;;;;;;8.40;7.40;;;;;;;;;;4982971;28;20041;-74
2023/09/16 04:49:13;;;;;;;11.55;9.70;;;;;;;;;;4984202;28;20038;-77
2023/09/16 04:51:39;;;;;;;10.77;8.52;;;;;;;;;;4985864;28;20026;-76
2023/09/16 04:54:05;;;;;;;11.55;9.45;;;;;;;;;;4981893;28;20058;-73
2023/09/16 04:56:31;;;;;;;9.45;7.10;;;;;;;;;;4982868;28;20224;-73
2023/09/16 04:58:57;;;;;;;6.75;5.95;;;;;;;;;;4991508;28;20500;-74
2023/09/16 05:01:24;;;;;;;9.70;6.97;;;;;;;;;;4987598;28;20156;-75
2023/09/16 05:03:50;;;;;;;6.93;6.20;;;;;;;;;;4989449;28;20491;-73
2023/09/16 05:06:16;;;;;;;10.48;6.60;;;;;;;;;;4979131;28;20027;-73
2023/09/16 05:08:42;;;;;;;6.65;5.95;;;;;;;;;;4989859;28;20046;-73
2023/09/16 05:11:08;;;;;;;7.30;6.57;;;;;;;;;;4988426;28;20042;-74
2023/09/16 05:13:35;;;;;;;7.32;5.95;;;;;;;;;;4988338;28;20568;-73
2023/09/16 05:16:01;;;;;;;8.07;6.18;;;;;;;;;;4993620;28;20115;-74
2023/09/16 05:18:27;;;;;;;7.63;6.40;;;;;;;;;;4980454;28;20323;-73
2023/09/16 05:20:53;;;;;;;8.50;6.22;;;;;;;;;;4984850;28;20057;-73
2023/09/16 05:23:19;;;;;;;8.45;7.55;;;;;;;;;;4986655;28;20038;-73
2023/09/16 05:25:51;;;;;;;9.13;7.60;;;;;;;;;;4985284;28;20123;-73
2023/09/16 05:28:17;;;;;;;7.88;7.07;;;;;;;;;;4984460;28;20400;-73
2023/09/16 05:30:43;;;;;;;7.50;6.70;;;;;;;;;;4980923;28;20159;-74
2023/09/16 05:33:12;;;;;;;8.70;7.10;;;;;;;;;;4982185;28;20034;-74
2023/09/16 05:35:38;;;;;;;7.80;6.22;;;;;;;;;;4986779;28;20065;-74
2023/09/16 05:38:04;;;;;;;8.75;6.57;;;;;;;;;;4986812;28;20038;-73
2023/09/16 05:40:31;;;;;;;7.00;6.07;;;;;;;;;;4986517;28;20026;-73
2023/09/16 05:42:57;;;;;;;8.23;6.93;;;;;;;;;;4984751;28;20049;-73
2023/09/16 05:45:23;;;;;;;9.10;7.40;;;;;;;;;;4980451;28;20042;-73
2023/09/16 05:47:52;;;;;;;9.65;7.18;;;;;;;;;;4985538;28;20776;-73
2023/09/16 05:50:18;;;;;;;8.23;7.43;;;;;;;;;;4986843;28;20034;-73
2023/09/16 05:52:44;;;;;;;10.10;6.78;;;;;;;;;;4987269;28;20046;-73
2023/09/16 05:55:10;;;;;;;10.10;7.30;;;;;;;;;;4979244;28;20409;-73
2023/09/16 05:57:36;;;;;;;10.25;7.90;;;;;;;;;;4986967;28;20019;-73
2023/09/16 06:00:03;;;;;;;10.45;8.63;;;;;;;;;;4988481;28;20054;-74
2023/09/16 06:02:29;;;;;;;9.02;8.10;;;;;;;;;;4984304;28;20404;-74
2023/09/16 06:04:55;;;;;;;9.25;8.25;;;;;;;;;;4986111;28;20516;-74
2023/09/16 06:07:25;;;;;;;8.48;7.53;;;;;;;;;;4980327;28;20031;-74
2023/09/16 06:09:51;;;;;;;9.23;8.07;;;;;;;;;;4982900;28;20473;-74
2023/09/16 06:12:17;;;;;;;10.80;8.65;;;;;;;;;;4986183;28;20054;-74
2023/09/16 06:14:43;;;;;;;8.98;7.93;;;;;;;;;;4987699;28;20499;-74
2023/09/16 06:17:09;;;;;;;9.55;8.57;;;;;;;;;;4986300;28;20034;-74
2023/09/16 06:19:35;;;;;;;9.75;8.57;;;;;;;;;;4987303;28;20043;-74
2023/09/16 06:22:01;;;;;;;9.52;8.52;;;;;;;;;;4982162;28;20412;-74
2023/09/16 06:24:28;;;;;;;10.10;8.93;;;;;;;;;;4990440;28;20031;-74
2023/09/16 06:26:54;;;;;;;10.60;9.50;;;;;;;;;;4981676;28;20520;-73
2023/09/16 06:29:20;;;;;;;14.20;8.43;;;;;;;;;;4982855;28;20042;-74
2023/09/16 06:31:46;;;;;;;11.30;9.25;;;;;;;;;;4981126;28;20539;-74
2023/09/16 06:34:12;;;;;;;9.27;8.15;;;;;;;;;;4984402;28;20042;-74
2023/09/16 06:36:40;;;;;;;16.83;9.98;;;;;;;;;;4989986;28;20050;-75
2023/09/16 06:39:07;;;;;;;12.05;8.93;;;;;;;;;;4985447;28;20054;-74
2023/09/16 06:41:34;;;;;;;9.95;8.75;;;;;;;;;;4980200;28;20030;-74
2023/09/16 06:44:00;;;;;;;10.45;9.20;;;;;;;;;;4987322;28;20035;-75
2023/09/16 06:46:26;;;;;;;11.57;9.07;;;;;;;;;;4984596;28;20038;-75
2023/09/16 06:48:52;;;;;;;12.18;10.32;;;;;;;;;;4988330;28;20088;-75
2023/09/16 06:51:18;;;;;;;11.43;9.68;;;;;;;;;;4981008;28;20393;-74
2023/09/16 06:53:44;;;;;;;10.93;9.82;;;;;;;;;;4995865;28;20030;-74
2023/09/16 06:56:10;;;;;;;11.80;9.95;;;;;;;;;;4984381;28;20523;-75
2023/09/16 06:58:36;;;;;;;11.98;9.48;;;;;;;;;;4987908;28;20030;-75
2023/09/16 07:01:12;;;;;;;16.23;10.27;;;;;;;;;;4985520;28;20057;-75
2023/09/16 07:03:38;;;;;;;11.57;10.35;;;;;;;;;;4985201;28;20100;-75
2023/09/16 07:06:04;;;;;;;13.13;11.45;;;;;;;;;;4978218;28;20034;-75
2023/09/16 07:08:30;;;;;;;13.35;11.93;;;;;;;;;;4980862;28;20043;-74
2023/09/16 07:10:56;;;;;;;13.73;12.18;;;;;;;;;;4983492;28;20037;-74
2023/09/16 07:13:22;;;;;;;14.55;11.38;;;;;;;;;;4984278;28;20901;-74
2023/09/16 07:15:55;;;;;;;12.68;10.52;;;;;;;;;;4980872;28;20023;-74
2023/09/16 07:18:21;;;;;;;18.90;14.35;;;;;;;;;;4984131;28;20046;-75
2023/09/16 07:20:48;;;;;;;15.40;11.43;;;;;;;;;;4977468;28;20035;-75
2023/09/16 07:23:14;;;;;;;12.95;11.50;;;;;;;;;;4980657;28;20042;-75
2023/09/16 07:25:40;;;;;;;13.27;11.32;;;;;;;;;;4984759;28;20487;-74
2023/09/16 07:28:07;;;;;;;15.68;11.60;;;;;;;;;;4985867;28;20049;-75
2023/09/16 07:30:34;;;;;;;15.98;12.32;;;;;;;;;;4980629;28;20392;-75
2023/09/16 07:33:00;;;;;;;14.35;11.13;;;;;;;;;;4983239;28;20034;-75
2023/09/16 07:35:26;;;;;;;14.68;11.70;;;;;;;;;;4982427;28;20133;-75
2023/09/16 07:37:52;;;;;;;16.30;12.02;;;;;;;;;;4987302;28;20338;-75
2023/09/16 07:40:18;;;;;;;12.65;10.02;;;;;;;;;;4988625;28;20484;-75
2023/09/16 07:42:44;;;;;;;11.77;10.52;;;;;;;;;;4976753;28;20038;-75
2023/09/16 07:45:11;;;;;;;17.30;10.45;;;;;;;;;;4979946;28;20030;-75
2023/09/16 07:47:37;;;;;;;11.38;9.48;;;;;;;;;;4983348;28;20041;-74
2023/09/16 07:50:03;;;;;;;14.85;10.80;;;;;;;;;;4981385;28;20057;-76
2023/09/16 07:52:29;;;;;;;14.80;10.90;;;;;;;;;;4974926;28;20039;-76
2023/09/16 07:54:59;;;;;;;12.88;10.32;;;;;;;;;;4981440;28;20380;-75
2023/09/16 07:57:27;;;;;;;15.80;11.68;;;;;;;;;;4980333;28;20038;-75
2023/09/16 07:59:54;;;;;;;13.57;9.70;;;;;;;;;;4999982;28;20168;-75
2023/09/16 08:02:20;;;;;;;17.73;10.30;;;;;;;;;;4982812;28;20038;-76
2023/09/16 08:04:46;;;;;;;14.95;10.75;;;;;;;;;;4983809;28;20100;-76
2023/09/16 08:07:12;;;;;;;113.35;73.05;;;;;;;;;;4987017;28;20030;-77
2023/09/16 08:09:38;;;;;;;74.22;51.53;;;;;;;;;;4978857;28;20037;-75
2023/09/16 08:12:04;;;;;;;17.27;13.15;;;;;;;;;;4990789;28;20061;-75
2023/09/16 08:14:30;;;;;;;14.90;11.27;;;;;;;;;;4992856;28;20046;-75
2023/09/16 08:16:58;;;;;;;12.70;9.82;;;;;;;;;;4984098;28;20022;-75
2023/09/16 08:19:24;;;;;;;12.43;9.45;;;;;;;;;;4976245;28;20031;-74
2023/09/16 08:21:50;;;;;;;10.93;9.27;;;;;;;;;;4985505;28;20036;-74
2023/09/16 08:24:16;;;;;;;11.32;8.95;;;;;;;;;;4988721;28;20030;-74
2023/09/16 08:26:42;;;;;;;10.88;8.52;;;;;;;;;;4986725;28;20088;-75
2023/09/16 08:29:08;;;;;;;61.97;41.83;;;;;;;;;;4984053;28;20031;-77
2023/09/16 08:31:34;;;;;;;58.15;47.50;;;;;;;;;;4987379;28;20530;-77
2023/09/16 08:34:01;;;;;;;15.15;10.38;;;;;;;;;;4993272;28;20053;-77
2023/09/16 08:36:28;;;;;;;11.68;8.60;;;;;;;;;;4986811;28;20054;-78
2023/09/16 08:38:54;;;;;;;9.85;8.13;;;;;;;;;;4988480;28;20047;-84
2023/09/16 08:41:27;;;;;;;10.13;7.63;;;;;;;;;;4982350;28;20038;-89
2023/09/16 08:43:54;;;;;;;9.90;7.93;;;;;;;;;;4980364;28;20049;-87
2023/09/16 08:46:22;;;;;;;9.63;7.45;;;;;;;;;;4985597;28;20389;-87
2023/09/16 08:48:50;;;;;;;13.32;7.57;;;;;;;;;;4994822;28;20038;-87
2023/09/16 08:51:17;;;;;;;8.80;7.78;;;;;;;;;;4984675;28;20034;-87
2023/09/16 08:53:44;;;;;;;8.85;7.15;;;;;;;;;;4981941;28;20396;-87
2023/09/16 08:56:10;;;;;;;9.32;7.25;;;;;;;;;;4989834;28;20536;-88
2023/09/16 08:58:39;;;;;;;8.43;6.20;;;;;;;;;;4988937;28;20061;-87
2023/09/16 09:01:05;;;;;;;8.75;6.72;;;;;;;;;;4981343;28;20031;-88
2023/09/16 09:03:32;;;;;;;11.00;6.07;;;;;;;;;;4983848;28;20066;-87
2023/09/16 09:05:58;;;;;;;10.63;6.32;;;;;;;;;;4989033;28;20034;-87
2023/09/16 09:08:24;;;;;;;12.20;7.82;;;;;;;;;;4984971;28;20034;-88
2023/09/16 09:10:51;;;;;;;10.80;7.32;;;;;;;;;;4983806;28;20038;-85
2023/09/16 09:13:17;;;;;;;10.60;7.22;;;;;;;;;;4988511;28;20030;-83
2023/09/16 09:15:44;;;;;;;7.53;5.43;;;;;;;;;;4989549;28;20480;-83
2023/09/16 09:18:12;;;;;;;6.25;5.25;;;;;;;;;;4986779;28;20425;-86
2023/09/16 09:20:39;;;;;;;7.47;6.68;;;;;;;;;;4986710;28;20365;-81
2023/09/16 09:23:05;;;;;;;6.55;5.70;;;;;;;;;;4979356;28;20049;-81
2023/09/16 09:25:36;;;;;;;9.68;5.88;;;;;;;;;;4983511;28;20080;-74
2023/09/16 09:28:03;;;;;;;6.63;5.53;;;;;;;;;;4983678;28;20031;-75
2023/09/16 09:30:31;;;;;;;7.28;6.25;;;;;;;;;;4982456;28;20023;-76
2023/09/16 09:32:58;;;;;;;8.25;5.80;;;;;;;;;;4983945;28;20120;-73
2023/09/16 09:35:24;;;;;;;9.77;4.70;;;;;;;;;;4981361;28;20102;-72
2023/09/16 09:37:50;;;;;;;8.50;5.25;;;;;;;;;;4988581;28;20233;-73
2023/09/16 09:40:17;;;;;;;8.82;4.63;;;;;;;;;;4983144;28;20054;-73
2023/09/16 09:42:43;;;;;;;5.28;4.70;;;;;;;;;;4991061;28;20034;-75
2023/09/16 09:45:10;;;;;;;7.43;4.72;;;;;;;;;;4985512;28;20489;-75
2023/09/16 09:47:39;;;;;;;6.13;4.13;;;;;;;;;;4989342;28;20022;-75
2023/09/16 09:50:07;;;;;;;4.68;3.95;;;;;;;;;;4986539;28;20436;-74
2023/09/16 09:52:33;;;;;;;5.30;3.60;;;;;;;;;;4985546;28;20141;-75
2023/09/16 09:55:00;;;;;;;5.40;3.53;;;;;;;;;;4984281;28;20053;-74
2023/09/16 09:57:27;;;;;;;8.90;3.53;;;;;;;;;;4984524;28;20088;-74
2023/09/16 09:59:53;;;;;;;9.25;3.15;;;;;;;;;;4982203;28;20039;-75
2023/09/16 10:02:22;;;;;;;4.60;3.60;;;;;;;;;;4982523;28;20037;-76
2023/09/16 10:04:48;;;;;;;6.53;3.20;;;;;;;;;;4996634;28;20504;-74
2023/09/16 10:07:14;;;;;;;5.40;2.90;;;;;;;;;;4986806;28;20035;-82
2023/09/16 10:09:43;;;;;;;32.95;23.20;;;;;;;;;;4982490;28;20113;-83
2023/09/16 10:12:10;;;;;;;7.30;4.75;;;;;;;;;;4989401;28;20034;-82
2023/09/16 10:14:36;;;;;;;9.15;4.80;;;;;;;;;;4987449;28;20041;-83
2023/09/16 10:17:02;;;;;;;6.03;3.33;;;;;;;;;;4983176;28;20041;-83
2023/09/16 10:19:28;;;;;;;5.32;2.97;;;;;;;;;;4983758;28;20122;-82
2023/09/16 10:21:54;;;;;;;4.32;3.00;;;;;;;;;;4980460;28;20141;-76
2023/09/16 10:24:21;;;;;;;5.15;3.08;;;;;;;;;;4982606;28;20637;-76
2023/09/16 10:26:47;;;;;;;4.40;2.88;;;;;;;;;;4989461;28;20026;-76
2023/09/16 10:29:13;;;;;;;4.38;3.00;;;;;;;;;;4998556;28;20041;-77
2023/09/16 10:31:40;;;;;;;5.25;3.20;;;;;;;;;;4977724;28;20113;-77
2023/09/16 10:34:06;;;;;;;3.85;2.80;;;;;;;;;;4982547;28;20050;-78
2023/09/16 10:36:33;;;;;;;4.38;2.85;;;;;;;;;;4986391;28;20046;-77
2023/09/16 10:39:01;;;;;;;54.97;47.80;;;;;;;;;;4982554;28;21086;-76
2023/09/16 10:41:27;;;;;;;7.07;5.68;;;;;;;;;;4980543;28;20038;-76
2023/09/16 10:43:55;;;;;;;5.22;2.63;;;;;;;;;;4982490;28;20042;-76
2023/09/16 10:46:22;;;;;;;4.35;3.00;;;;;;;;;;4980972;28;20040;-76
2023/09/16 10:48:48;;;;;;;4.32;2.92;;;;;;;;;;4986758;28;20544;-76
2023/09/16 10:51:20;;;;;;;4.18;2.55;;;;;;;;;;4981451;28;20084;-76
2023/09/16 10:53:50;;;;;;;5.30;2.45;;;;;;;;;;4978410;28;20474;-75
2023/09/16 10:56:24;;;;;;;4.65;2.58;;;;;;;;;;4988451;28;20038;-75
2023/09/16 10:59:01;;;;;;;4.07;2.50;;;;;;;;;;4992261;28;20030;-75
2023/09/16 11:01:49;;;;;;;3.97;3.13;;;;;;;;;;4982978;28;20030;-75
2023/09/16 11:04:16;;;;;;;5.30;3.25;;;;;;;;;;4988560;28;20038;-75
2023/09/16 11:06:43;;;;;;;6.30;4.35;;;;;;;;;;4981574;28;20085;-75
2023/09/16 11:09:09;;;;;;;5.32;3.85;;;;;;;;;;4989478;28;20433;-76
2023/09/16 11:11:35;;;;;;;6.13;2.30;;;;;;;;;;4989081;28;20030;-75
2023/09/16 11:14:02;;;;;;;7.25;2.08;;;;;;;;;;4986536;28;20116;-75
2023/09/16 11:16:28;;;;;;;3.28;2.03;;;;;;;;;;4981950;28;20040;-75
2023/09/16 11:18:55;;;;;;;2.28;1.75;;;;;;;;;;4993272;28;20041;-76
2023/09/16 11:21:21;;;;;;;2.42;2.03;;;;;;;;;;4992715;28;20267;-76
2023/09/16 11:23:48;;;;;;;4.07;1.70;;;;;;;;;;4993530;28;20026;-75
2023/09/16 11:26:21;;;;;;;3.22;1.98;;;;;;;;;;4990205;28;20029;-75
2023/09/16 11:28:47;;;;;;;4.55;2.10;;;;;;;;;;4992223;28;20084;-76
2023/09/16 11:31:13;;;;;;;6.22;2.55;;;;;;;;;;4982978;28;20038;-76
2023/09/16 11:33:39;;;;;;;5.50;2.05;;;;;;;;;;4988914;28;20030;-76
2023/09/16 11:36:08;;;;;;;3.38;1.95;;;;;;;;;;4987563;28;20082;-76
2023/09/16 11:38:34;;;;;;;6.43;2.58;;;;;;;;;;5002306;28;20041;-76
2023/09/16 11:41:10;;;;;;;4.18;2.20;;;;;;;;;;4988499;28;20037;-76
2023/09/16 11:43:39;;;;;;;3.88;2.20;;;;;;;;;;4982400;28;20109;-76
2023/09/16 11:46:11;;;;;;;4.93;1.85;;;;;;;;;;4974647;28;20353;-76
2023/09/16 11:48:49;;;;;;;4.13;1.65;;;;;;;;;;4988905;28;20907;-75
2023/09/16 11:51:16;;;;;;;4.57;2.42;;;;;;;;;;4978651;28;20035;-76
2023/09/16 11:53:42;;;;;;;8.18;2.40;;;;;;;;;;4989864;28;20554;-76
2023/09/16 11:56:08;;;;;;;5.05;2.70;;;;;;;;;;4986120;28;20030;-76
2023/09/16 11:58:34;;;;;;;4.15;1.90;;;;;;;;;;4993449;28;20034;-76
2023/09/16 12:01:02;;;;;;;2.97;1.77;;;;;;;;;;5001298;28;20523;-76
2023/09/16 12:03:28;;;;;;;3.30;1.60;;;;;;;;;;4991442;28;20030;-76
2023/09/16 12:05:55;;;;;;;3.40;2.08;;;;;;;;;;4975900;28;20034;-76
2023/09/16 12:08:22;;;;;;;4.65;1.80;;;;;;;;;;4998673;28;20034;-76
2023/09/16 12:10:49;;;;;;;3.35;1.40;;;;;;;;;;4998231;28;20029;-76
2023/09/16 12:13:26;;;;;;;2.65;1.85;;;;;;;;;;4994115;28;20041;-76
2023/09/16 12:15:52;;;;;;;2.38;1.58;;;;;;;;;;4990039;28;20023;-76
2023/09/16 12:18:18;;;;;;;2.13;1.45;;;;;;;;;;4978378;28;20516;-76
2023/09/16 12:20:45;;;;;;;2.17;1.70;;;;;;;;;;4992316;28;20037;-76
2023/09/16 12:23:11;;;;;;;4.50;1.60;;;;;;;;;;4995108;28;20046;-75
2023/09/16 12:25:40;;;;;;;2.63;1.58;;;;;;;;;;4978325;28;20376;-76
2023/09/16 12:28:07;;;;;;;4.80;1.75;;;;;;;;;;4995284;28;20038;-76
2023/09/16 12:30:32;;;;;;;6.18;1.73;;;;;;;;;;4989400;28;20066;-76
2023/09/16 12:32:58;;;;;;;2.97;1.40;;;;;;;;;;4987052;28;20077;-76
2023/09/16 12:35:25;;;;;;;2.05;1.42;;;;;;;;;;4981211;28;20482;-76
2023/09/16 12:37:51;;;;;;;2.35;1.30;;;;;;;;;;4987710;28;20515;-76
2023/09/16 12:40:17;;;;;;;3.10;1.50;;;;;;;;;;4982705;28;20041;-78
2023/09/16 12:42:43;;;;;;;3.30;1.88;;;;;;;;;;4974980;28;20038;-82
2023/09/16 12:45:10;;;;;;;5.60;1.65;;;;;;;;;;4993476;28;20046;-81
2023/09/16 12:47:36;;;;;;;2.25;1.70;;;;;;;;;;4972001;28;20290;-79
2023/09/16 12:50:02;;;;;;;3.40;1.73;;;;;;;;;;4975042;28;20281;-79
2023/09/16 12:52:28;;;;;;;4.03;1.75;;;;;;;;;;4991354;28;20121;-80
2023/09/16 12:54:55;;;;;;;2.53;2.13;;;;;;;;;;4977928;28;20062;-80
2023/09/16 12:57:21;;;;;;;3.28;1.80;;;;;;;;;;4984042;28;20030;-79
2023/09/16 13:00:03;;;;;;;5.28;2.50;;;;;;;;;;4983074;28;20049;-79
2023/09/16 13:02:29;;;;;;;3.25;2.20;;;;;;;;;;4988006;28;20626;-79
2023/09/16 13:05:10;;;;;;;2.40;2.03;;;;;;;;;;4988700;28;20049;-76
2023/09/16 13:07:37;;;;;;;4.75;1.85;;;;;;;;;;4987513;28;20643;-76
2023/09/16 13:10:03;;;;;;;5.00;2.17;;;;;;;;;;4981920;28;20042;-78
2023/09/16 13:12:30;;;;;;;3.45;1.92;;;;;;;;;;4984836;28;20160;-76
2023/09/16 13:14:57;;;;;;;2.72;1.70;;;;;;;;;;4987895;28;20019;-75
2023/09/16 13:17:23;;;;;;;3.60;2.08;;;;;;;;;;4984255;28;20643;-75
2023/09/16 13:19:49;;;;;;;3.03;2.03;;;;;;;;;;4989489;28;20041;-76
2023/09/16 13:22:17;;;;;;;3.20;1.92;;;;;;;;;;4994541;28;20037;-75
2023/09/16 13:24:45;;;;;;;4.95;2.47;;;;;;;;;;4981738;28;20027;-74
2023/09/16 13:27:16;;;;;;;3.28;2.28;;;;;;;;;;4983220;28;20060;-74
2023/09/16 13:29:42;;;;;;;4.43;2.23;;;;;;;;;;4987361;28;20076;-75
2023/09/16 13:32:08;;;;;;;3.30;1.75;;;;;;;;;;4981401;28;20071;-76
2023/09/16 13:34:47;;;;;;;4.32;2.00;;;;;;;;;;4990214;28;20417;-76
2023/09/16 13:37:13;;;;;;;4.72;2.20;;;;;;;;;;4987182;28;20046;-75
2023/09/16 13:39:47;;;;;;;4.55;2.40;;;;;;;;;;4999182;28;20100;-80
2023/09/16 13:42:14;;;;;;;6.68;5.28;;;;;;;;;;4991774;28;20041;-84
2023/09/16 13:44:45;;;;;;;3.05;2.00;;;;;;;;;;4982364;28;20041;-81
2023/09/16 13:47:11;;;;;;;3.50;1.92;;;;;;;;;;5003528;28;20058;-77
2023/09/16 13:49:37;;;;;;;3.13;1.92;;;;;;;;;;4985991;28;20030;-90
2023/09/16 13:52:03;;;;;;;3.53;1.90;;;;;;;;;;4996440;28;20175;-91
2023/09/16 13:54:30;;;;;;;3.25;1.98;;;;;;;;;;4991469;28;20460;-91
2023/09/16 13:56:56;;;;;;;2.63;2.10;;;;;;;;;;4979229;28;20043;-89
2023/09/16 13:59:22;;;;;;;7.35;2.50;;;;;;;;;;4992648;28;20081;-91
2023/09/16 14:01:48;;;;;;;4.03;2.13;;;;;;;;;;4987434;28;20105;-91
2023/09/16 14:04:15;;;;;;;5.07;2.38;;;;;;;;;;4991312;28;20041;-91
2023/09/16 14:06:42;;;;;;;4.10;1.77;;;;;;;;;;4990870;28;20042;-91
2023/09/16 14:09:08;;;;;;;5.28;2.10;;;;;;;;;;4990854;28;20030;-92
2023/09/16 14:11:34;;;;;;;3.55;1.75;;;;;;;;;;4991502;28;20085;-92
2023/09/16 14:14:00;;;;;;;4.50;1.52;;;;;;;;;;4997785;28;20461;-88
2023/09/16 14:16:28;;;;;;;81.38;61.33;;;;;;;;;;4983665;28;20050;-89
2023/09/16 14:18:54;;;;;;;10.18;6.82;;;;;;;;;;4987005;28;20283;-86
2023/09/16 14:21:20;;;;;;;2.95;1.98;;;;;;;;;;4985831;28;20042;-86
2023/09/16 14:23:46;;;;;;;4.50;1.73;;;;;;;;;;4991836;28;20034;-89
2023/09/16 14:26:12;;;;;;;4.07;2.33;;;;;;;;;;4987395;28;20030;-90
2023/09/16 14:28:38;;;;;;;2.30;1.77;;;;;;;;;;4989663;28;20038;-90
2023/09/16 14:31:08;;;;;;;4.63;2.20;;;;;;;;;;4990950;28;20041;-90
2023/09/16 14:33:35;;;;;;;4.22;2.10;;;;;;;;;;4986057;28;21467;-89
2023/09/16 14:36:01;;;;;;;3.30;1.77;;;;;;;;;;4987707;28;20041;-89